LiveATC.Net - Listen to live air traffic control over the Internet! Contact LiveATC.net for advertising information


ICAO: KFMY  IATA: FMY   Airport: Page Field Airport
City: Fort Myers   State/Province: Florida
Country: United States   Continent: North America
KFMY METAR Weather: KFMY 232153Z 30010KT 10SM CLR 26/16 A2990 RMK AO2 SLP128 T02610156
KFMY Flight Activity (FlightAware)
KFMY Airport Info   (AirNav) (iFlightPlanner)
KFMY Del/Gnd/Twr
Feed Status: DOWN
Last heard on: 2014-04-23 22:18:03 (0 days 0 hours 18 minutes ago)
KFMY Del/Gnd/Twr Audio Archives
FacilityFrequency
Page Clearance/Ground121.700
Page Tower119.000

Sponsored by LiveATC.net, Jeff Dodd, and Paragon Flight Training

NOTICE

Unauthorized use prohibited. See LiveATC.net Terms of Service


Find LiveATC Audio Streams


Airport/ARTCC Code

Frequency
(e.g., 124.400, 128.75)
Site-wide search

Browse LiveATC Feeds
LiveATC Coverage Map
Top 50 LiveATC Feeds
Bad Weather Areas

LiveATC FAQ
Offer a LiveATC Feed
Contact LiveATC.net
Press Inquiries

LiveATC on iPhone
LiveATC on Android

LiveATC Mobile
(Mobile browser)

ATC Audio Archives
Interesting Recordings

LiveATC Forums


Home Page
About LiveATC.net
Make a Donation
LiveATC Bookstore

Terms of Use
Privacy Policy

ATC/Radar Sites
U.S. ARTCC Freqs
Canadian Air Freqs

AIRMETs/SIGMETs

FAA Airport Status
Nat'l Airspace Status
Arrival Demand Charts


Server Software By:
Icecast.org
Liquidsoap

Please make a donation to help us keep growing!